Wetterdaten: Sonntag, 10.01.2010
Datum Zeit Temp. A. Feuchte A. Luftdruck Regen Wind Richtung Richtung Sonnenschein UV Solar Windben
10.01.2010 00:00 -2,1 C 84 % 1012,1 hPa 0,0 mm 3,6 km/h (1 Bft) O-NO 75 0 min 0 UV-I 0 W/m 11,3 km/h (2 Bft)
10.01.2010 00:10 -2,1 C 84 % 1012,0 hPa 0,0 mm 4,9 km/h (1 Bft) O-NO 61 0 min 0 UV-I 0 W/m 16,1 km/h (3 Bft)
10.01.2010 00:20 -2,1 C 84 % 1012,0 hPa 0,3 mm 3,5 km/h (1 Bft) O 84 0 min 0 UV-I 0 W/m 8,0 km/h (2 Bft)
10.01.2010 00:30 -2,1 C 84 % 1011,8 hPa 0,0 mm 3,9 km/h (1 Bft) O 92 0 min 0 UV-I 0 W/m 9,7 km/h (2 Bft)
10.01.2010 00:40 -2,1 C 84 % 996,9 hPa 0,0 mm 4,3 km/h (1 Bft) O-NO 65 0 min 0 UV-I 0 W/m 16,1 km/h (3 Bft)
10.01.2010 00:50 -2,1 C 84 % 1011,9 hPa 0,0 mm 4,9 km/h (1 Bft) O-NO 62 0 min 0 UV-I 0 W/m 11,3 km/h (2 Bft)
10.01.2010 01:00 -2,1 C 84 % 1007,7 hPa 0,0 mm 4,3 km/h (1 Bft) O-NO 63 0 min 0 UV-I 0 W/m 14,5 km/h (3 Bft)
10.01.2010 01:10 -2,1 C 84 % 1008,6 hPa 0,0 mm 3,4 km/h (1 Bft) NO 56 0 min 0 UV-I 0 W/m 9,7 km/h (2 Bft)
10.01.2010 01:20 -2,1 C 84 % 1011,6 hPa 0,0 mm 3,5 km/h (1 Bft) O-NO 61 0 min 0 UV-I 0 W/m 9,7 km/h (2 Bft)
10.01.2010 01:30 -2,1 C 84 % 999,8 hPa 0,0 mm 3,9 km/h (1 Bft) O-SO 107 0 min 0 UV-I 0 W/m 14,5 km/h (3 Bft)
10.01.2010 01:40 -2,1 C 84 % 999,8 hPa 0,0 mm 3,8 km/h (1 Bft) O 88 0 min 0 UV-I 0 W/m 9,7 km/h (2 Bft)
10.01.2010 01:50 -2,1 C 84 % 1011,5 hPa 0,3 mm 3,4 km/h (1 Bft) O-NO 72 0 min 0 UV-I 0 W/m 11,3 km/h (2 Bft)
10.01.2010 02:00 -2,1 C 84 % 1011,0 hPa 0,0 mm 2,9 km/h (1 Bft) NO 37 0 min 0 UV-I 0 W/m 8,0 km/h (2 Bft)
10.01.2010 02:10 -2,2 C 84 % 1011,1 hPa 0,0 mm 3,9 km/h (1 Bft) O-SO 103 0 min 0 UV-I 0 W/m 9,7 km/h (2 Bft)
10.01.2010 02:20 -2,1 C 84 % 1011,5 hPa 0,0 mm 4,1 km/h (1 Bft) O-NO 78 0 min 0 UV-I 0 W/m 9,7 km/h (2 Bft)
10.01.2010 02:30 -2,2 C 84 % 1011,5 hPa 0,0 mm 2,2 km/h (1 Bft) O 95 0 min 0 UV-I 0 W/m 8,0 km/h (2 Bft)
10.01.2010 02:40 -2,2 C 84 % 1003,1 hPa 0,0 mm 2,6 km/h (1 Bft) NO 52 0 min 0 UV-I 0 W/m 8,0 km/h (2 Bft)
10.01.2010 02:50 -2,2 C 84 % 1011,6 hPa 0,0 mm 2,5 km/h (1 Bft) O-NO 72 0 min 0 UV-I 0 W/m 14,5 km/h (3 Bft)
10.01.2010 03:00 -2,2 C 84 % 1005,9 hPa 0,0 mm 3,3 km/h (1 Bft) SO 136 0 min 0 UV-I 0 W/m 16,1 km/h (3 Bft)
10.01.2010 03:10 -2,2 C 84 % 1011,7 hPa 0,0 mm 3,0 km/h (1 Bft) O-NO 69 0 min 0 UV-I 0 W/m 8,0 km/h (2 Bft)
10.01.2010 03:20 -2,2 C 84 % 1011,7 hPa 0,0 mm 2,3 km/h (1 Bft) O 80 0 min 0 UV-I 0 W/m 8,0 km/h (2 Bft)
10.01.2010 03:30 -2,2 C 84 % 1011,8 hPa 0,0 mm 2,9 km/h (1 Bft) O-NO 78 0 min 0 UV-I 0 W/m 11,3 km/h (2 Bft)
10.01.2010 03:40 -2,2 C 85 % 1011,8 hPa 0,0 mm 1,6 km/h (1 Bft) NO 45 0 min 0 UV-I 0 W/m 8,0 km/h (2 Bft)
10.01.2010 03:50 -2,2 C 85 % 1011,8 hPa 0,0 mm 4,8 km/h (1 Bft) O-NO 67 0 min 0 UV-I 0 W/m 14,5 km/h (3 Bft)
10.01.2010 04:00 -2,2 C 85 % 1011,8 hPa 0,3 mm 1,6 km/h (1 Bft) O 90 0 min 0 UV-I 0 W/m 8,0 km/h (2 Bft)
10.01.2010 04:10 -2,2 C 85 % 1011,8 hPa 0,0 mm 1,6 km/h (1 Bft) NO 45 0 min 0 UV-I 0 W/m 4,8 km/h (1 Bft)
10.01.2010 04:20 -2,2 C 85 % 1011,8 hPa 0,0 mm 1,6 km/h (1 Bft) NO 45 0 min 0 UV-I 0 W/m 6,4 km/h (2 Bft)
10.01.2010 04:30 -2,2 C 85 % 1011,9 hPa 0,0 mm 1,6 km/h (1 Bft) NO 45 0 min 0 UV-I 0 W/m 6,4 km/h (2 Bft)
10.01.2010 04:40 -2,2 C 85 % 1011,9 hPa 0,0 mm 1,6 km/h (1 Bft) NO 45 0 min 0 UV-I 0 W/m 6,4 km/h (2 Bft)
10.01.2010 04:50 -2,2 C 85 % 1011,9 hPa 0,0 mm 1,6 km/h (1 Bft) O-NO 67 0 min 0 UV-I 0 W/m 8,0 km/h (2 Bft)
10.01.2010 05:00 -2,2 C 85 % 1011,9 hPa 0,0 mm 1,6 km/h (1 Bft) NO 45 0 min 0 UV-I 0 W/m 8,0 km/h (2 Bft)
10.01.2010 05:10 -2,2 C 85 % 1011,8 hPa 0,0 mm 1,6 km/h (1 Bft) NO 45 0 min 0 UV-I 0 W/m 4,8 km/h (1 Bft)
10.01.2010 05:20 -2,3 C 85 % 1011,9 hPa 0,0 mm 1,6 km/h (1 Bft) NO 45 0 min 0 UV-I 0 W/m 8,0 km/h (2 Bft)
10.01.2010 05:30 -2,3 C 86 % 1012,0 hPa 0,0 mm 1,6 km/h (1 Bft) O-NO 67 0 min 0 UV-I 0 W/m 6,4 km/h (2 Bft)
10.01.2010 05:40 -2,3 C 86 % 1011,9 hPa 0,0 mm 1,6 km/h (1 Bft) O-NO 67 0 min 0 UV-I 0 W/m 4,8 km/h (1 Bft)
10.01.2010 05:50 -2,3 C 86 % 1011,9 hPa 0,3 mm 0,0 km/h (0 Bft) O-NO 67 0 min 0 UV-I 0 W/m 3,2 km/h (1 Bft)
10.01.2010 06:00 -2,3 C 86 % 1011,9 hPa 0,0 mm 1,6 km/h (1 Bft) N-NO 22 0 min 0 UV-I 0 W/m 4,8 km/h (1 Bft)
10.01.2010 06:10 -2,3 C 86 % 1011,9 hPa 0,0 mm 1,6 km/h (1 Bft) N-NO 22 0 min 0 UV-I 0 W/m 6,4 km/h (2 Bft)
10.01.2010 06:20 -2,3 C 86 % 1012,0 hPa 0,0 mm 0,0 km/h (0 Bft) N-NO 22 0 min 0 UV-I 0 W/m 3,2 km/h (1 Bft)
10.01.2010 06:30 -2,3 C 86 % 1012,0 hPa 0,0 mm 1,6 km/h (1 Bft) N-NO 22 0 min 0 UV-I 0 W/m 4,8 km/h (1 Bft)
10.01.2010 06:40 -2,3 C 86 % 1012,1 hPa 0,0 mm 1,6 km/h (1 Bft) NO 45 0 min 0 UV-I 0 W/m 4,8 km/h (1 Bft)
10.01.2010 06:50 -2,3 C 86 % 1012,1 hPa 0,0 mm 0,0 km/h (0 Bft) NO 45 0 min 0 UV-I 0 W/m 3,2 km/h (1 Bft)
10.01.2010 07:00 -2,3 C 86 % 1012,2 hPa 0,0 mm 0,0 km/h (0 Bft) NO 45 0 min 0 UV-I 0 W/m 3,2 km/h (1 Bft)
10.01.2010 07:10 -2,3 C 86 % 1012,3 hPa 0,0 mm 0,0 km/h (0 Bft) NO 45 0 min 0 UV-I 0 W/m 3,2 km/h (1 Bft)
10.01.2010 07:20 -2,3 C 86 % 1012,2 hPa 0,0 mm 1,6 km/h (1 Bft) NO 45 0 min 0 UV-I 0 W/m 4,8 km/h (1 Bft)
10.01.2010 07:30 -2,3 C 86 % 1012,2 hPa 0,0 mm 1,6 km/h (1 Bft) NO 45 0 min 0 UV-I 0 W/m 4,8 km/h (1 Bft)
10.01.2010 07:40 -2,4 C 86 % 1012,3 hPa 0,0 mm 1,6 km/h (1 Bft) N-NO 22 0 min 0 UV-I 0 W/m 4,8 km/h (1 Bft)
10.01.2010 07:50 -2,4 C 87 % 1012,5 hPa 0,0 mm 1,6 km/h (1 Bft) N-NO 22 0 min 0 UV-I 0 W/m 6,4 km/h (2 Bft)
10.01.2010 08:00 -2,4 C 87 % 1012,5 hPa 0,0 mm 0,8 km/h (0 Bft) N-NO 14 0 min 0 UV-I 0 W/m 3,2 km/h (1 Bft)
10.01.2010 08:10 -2,4 C 87 % 1012,6 hPa 0,0 mm 1,6 km/h (1 Bft) N-NO 22 0 min 0 UV-I 0 W/m 4,8 km/h (1 Bft)
10.01.2010 08:20 -2,4 C 87 % 1012,7 hPa 0,3 mm 0,0 km/h (0 Bft) N-NO 22 0 min 0 UV-I 0 W/m 4,8 km/h (1 Bft)
10.01.2010 08:30 -2,3 C 87 % 1012,7 hPa 0,0 mm 1,6 km/h (1 Bft) N-NO 22 0 min 0 UV-I 0 W/m 4,8 km/h (1 Bft)
10.01.2010 08:40 -2,3 C 87 % 1012,9 hPa 0,0 mm 1,6 km/h (1 Bft) N-NO 22 0 min 0 UV-I 0 W/m 4,8 km/h (1 Bft)
10.01.2010 08:50 -2,3 C 87 % 1013,0 hPa 0,0 mm 1,6 km/h (1 Bft) NO 45 0 min 0 UV-I 9 W/m 4,8 km/h (1 Bft)
10.01.2010 09:00 -2,3 C 87 % 1013,2 hPa 0,0 mm 1,6 km/h (1 Bft) N-NO 22 0 min 0 UV-I 12 W/m 6,4 km/h (2 Bft)
10.01.2010 09:10 -2,3 C 88 % 1013,3 hPa 0,0 mm 1,6 km/h (1 Bft) NO 45 0 min 0 UV-I 19 W/m 8,0 km/h (2 Bft)
10.01.2010 09:20 -2,2 C 88 % 1013,3 hPa 0,0 mm 3,2 km/h (1 Bft) N-NO 22 0 min 0 UV-I 23 W/m 8,0 km/h (2 Bft)
10.01.2010 09:30 -2,2 C 88 % 1013,5 hPa 0,0 mm 3,2 km/h (1 Bft) N-NO 22 0 min 0 UV-I 23 W/m 6,4 km/h (2 Bft)
10.01.2010 09:40 -2,1 C 88 % 1013,5 hPa 0,0 mm 1,6 km/h (1 Bft) N-NO 22 0 min 0 UV-I 25 W/m 6,4 km/h (2 Bft)
10.01.2010 09:50 -2,1 C 88 % 1013,6 hPa 0,0 mm 1,6 km/h (1 Bft) N-NO 22 0 min 0 UV-I 32 W/m 6,4 km/h (2 Bft)
10.01.2010 10:00 -2,0 C 88 % 1013,7 hPa 0,0 mm 0,0 km/h (0 Bft) NO 45 0 min 0 UV-I 39 W/m 4,8 km/h (1 Bft)
10.01.2010 10:10 -1,9 C 88 % 1013,7 hPa 0,0 mm 1,6 km/h (1 Bft) N-NO 22 0 min 0 UV-I 40 W/m 6,4 km/h (2 Bft)
10.01.2010 10:20 -1,8 C 89 % 1013,8 hPa 0,0 mm 0,0 km/h (0 Bft) N-NO 22 0 min 0 UV-I 46 W/m 3,2 km/h (1 Bft)
10.01.2010 10:30 -1,7 C 89 % 1013,9 hPa 0,0 mm 0,0 km/h (0 Bft) N-NO 22 0 min 0 UV-I 62 W/m 3,2 km/h (1 Bft)
10.01.2010 10:40 -1,6 C 89 % 1014,0 hPa 0,0 mm 0,0 km/h (0 Bft) NO 45 0 min 0 UV-I 67 W/m 4,8 km/h (1 Bft)
10.01.2010 10:50 -1,4 C 89 % 1014,0 hPa 0,0 mm 1,6 km/h (1 Bft) NO 45 0 min 0 UV-I 63 W/m 4,8 km/h (1 Bft)
10.01.2010 11:00 -1,2 C 89 % 1014,2 hPa 0,0 mm 1,6 km/h (1 Bft) O-NO 67 0 min 0 UV-I 62 W/m 4,8 km/h (1 Bft)
10.01.2010 11:10 -1,1 C 89 % 1014,1 hPa 0,0 mm 3,2 km/h (1 Bft) O 90 0 min 0 UV-I 62 W/m 8,0 km/h (2 Bft)
10.01.2010 11:20 -1,0 C 89 % 1014,1 hPa 0,0 mm 1,6 km/h (1 Bft) O-NO 67 0 min 0 UV-I 65 W/m 8,0 km/h (2 Bft)
10.01.2010 11:30 -0,9 C 89 % 1014,2 hPa 0,0 mm 1,6 km/h (1 Bft) NO 45 0 min 0 UV-I 91 W/m 6,4 km/h (2 Bft)
10.01.2010 11:40 -0,8 C 88 % 1014,3 hPa 0,0 mm 3,2 km/h (1 Bft) O 90 0 min 0 UV-I 90 W/m 8,0 km/h (2 Bft)
10.01.2010 11:50 -0,8 C 88 % 1014,3 hPa 0,0 mm 3,2 km/h (1 Bft) O-NO 67 0 min 0 UV-I 90 W/m 9,7 km/h (2 Bft)
10.01.2010 12:00 -0,8 C 88 % 1014,3 hPa 0,3 mm 1,6 km/h (1 Bft) N-NO 22 0 min 0 UV-I 91 W/m 6,4 km/h (2 Bft)
10.01.2010 12:10 -0,7 C 87 % 1014,3 hPa 0,0 mm 1,1 km/h (1 Bft) NO 51 0 min 0 UV-I 82 W/m 6,4 km/h (2 Bft)
10.01.2010 12:20 -0,6 C 87 % 1014,3 hPa 0,0 mm 1,7 km/h (1 Bft) O-NO 57 0 min 0 UV-I 78 W/m 8,0 km/h (2 Bft)
10.01.2010 12:30 -0,6 C 86 % 1014,2 hPa 0,0 mm 2,2 km/h (1 Bft) O-NO 75 0 min 0 UV-I 81 W/m 9,7 km/h (2 Bft)
10.01.2010 12:40 -0,5 C 86 % 1014,3 hPa 0,0 mm 2,4 km/h (1 Bft) NO 53 0 min 0 UV-I 93 W/m 9,7 km/h (2 Bft)
10.01.2010 12:50 -0,6 C 85 % 1014,2 hPa 0,0 mm 2,0 km/h (1 Bft) NO 49 0 min 0 UV-I 93 W/m 8,0 km/h (2 Bft)
10.01.2010 13:00 -0,5 C 85 % 1014,3 hPa 0,0 mm 1,8 km/h (1 Bft) O-NO 74 0 min 0 UV-I 105 W/m 6,4 km/h (2 Bft)
10.01.2010 13:10 -0,4 C 85 % 1014,3 hPa 0,0 mm 2,0 km/h (1 Bft) O-NO 65 0 min 1 UV-I 113 W/m 8,0 km/h (2 Bft)
10.01.2010 13:20 -0,3 C 85 % 1014,3 hPa 0,0 mm 2,2 km/h (1 Bft) N 5 10 min 1 UV-I 171 W/m 8,0 km/h (2 Bft)
10.01.2010 13:30 -0,2 C 84 % 1014,4 hPa 0,0 mm 3,6 km/h (1 Bft) O-NO 75 0 min 1 UV-I 143 W/m 9,7 km/h (2 Bft)
10.01.2010 13:40 -0,2 C 83 % 1014,4 hPa 0,0 mm 2,2 km/h (1 Bft) O-NO 61 0 min 1 UV-I 89 W/m 6,4 km/h (2 Bft)
10.01.2010 13:50 -0,2 C 82 % 1014,5 hPa 0,0 mm 2,8 km/h (1 Bft) NO 49 0 min 1 UV-I 108 W/m 9,7 km/h (2 Bft)
10.01.2010 14:00 -0,2 C 82 % 1014,5 hPa 0,0 mm 3,1 km/h (1 Bft) O 89 0 min 0 UV-I 108 W/m 11,3 km/h (2 Bft)
10.01.2010 14:10 -0,2 C 81 % 1014,5 hPa 0,0 mm 3,1 km/h (1 Bft) O 86 0 min 0 UV-I 86 W/m 9,7 km/h (2 Bft)
10.01.2010 14:20 -0,2 C 81 % 1014,5 hPa 0,0 mm 2,8 km/h (1 Bft) NO 39 0 min 0 UV-I 64 W/m 8,0 km/h (2 Bft)
10.01.2010 14:30 -0,3 C 80 % 1014,6 hPa 0,0 mm 2,4 km/h (1 Bft) O-NO 64 0 min 0 UV-I 49 W/m 6,4 km/h (2 Bft)
10.01.2010 14:40 -0,4 C 80 % 1014,7 hPa 0,0 mm 2,2 km/h (1 Bft) O-NO 74 0 min 0 UV-I 43 W/m 6,4 km/h (2 Bft)
10.01.2010 14:50 -0,4 C 80 % 1014,8 hPa 0,0 mm 1,1 km/h (1 Bft) O-SO 102 0 min 0 UV-I 35 W/m 6,4 km/h (2 Bft)
10.01.2010 15:00 -0,5 C 80 % 1014,8 hPa 0,0 mm 1,7 km/h (1 Bft) NO 44 0 min 0 UV-I 49 W/m 4,8 km/h (1 Bft)
10.01.2010 15:10 -0,6 C 80 % 1014,9 hPa 0,0 mm 1,7 km/h (1 Bft) NO 56 0 min 0 UV-I 54 W/m 4,8 km/h (1 Bft)
10.01.2010 15:20 -0,6 C 81 % 1015,0 hPa 0,0 mm 1,3 km/h (1 Bft) NO 56 0 min 0 UV-I 53 W/m 4,8 km/h (1 Bft)
10.01.2010 15:30 -0,6 C 81 % 1015,0 hPa 0,0 mm 1,4 km/h (1 Bft) O-NO 61 0 min 0 UV-I 45 W/m 6,4 km/h (2 Bft)
10.01.2010 15:40 -0,6 C 81 % 1015,1 hPa 0,0 mm 2,0 km/h (1 Bft) O-NO 63 0 min 0 UV-I 29 W/m 6,4 km/h (2 Bft)
10.01.2010 15:50 -0,7 C 81 % 1015,1 hPa 0,0 mm 0,8 km/h (0 Bft) O-NO 57 0 min 0 UV-I 25 W/m 4,8 km/h (1 Bft)
10.01.2010 16:00 -0,8 C 81 % 1015,3 hPa 0,0 mm 0,6 km/h (0 Bft) O 84 0 min 0 UV-I 23 W/m 4,8 km/h (1 Bft)
10.01.2010 16:10 -0,8 C 81 % 1015,4 hPa 0,0 mm 1,4 km/h (1 Bft) N-NO 24 0 min 0 UV-I 19 W/m 6,4 km/h (2 Bft)
10.01.2010 16:20 -0,9 C 81 % 1015,4 hPa 0,0 mm 1,1 km/h (1 Bft) O-NO 63 10 min 0 UV-I 14 W/m 6,4 km/h (2 Bft)
10.01.2010 16:30 -0,9 C 80 % 1015,5 hPa 0,0 mm 0,6 km/h (0 Bft) O-NO 59 0 min 0 UV-I 9 W/m 3,2 km/h (1 Bft)
10.01.2010 16:40 -1,1 C 81 % 1015,5 hPa 0,0 mm 1,5 km/h (1 Bft) N-NO 32 0 min 0 UV-I 5 W/m 11,3 km/h (2 Bft)
10.01.2010 16:50 -1,1 C 81 % 1015,5 hPa 0,0 mm 1,3 km/h (1 Bft) NO 40 0 min 0 UV-I 1 W/m 4,8 km/h (1 Bft)
10.01.2010 17:00 -1,2 C 81 % 1015,5 hPa 0,0 mm 1,0 km/h (0 Bft) N 350 0 min 0 UV-I 0 W/m 6,4 km/h (2 Bft)
10.01.2010 17:10 -1,3 C 82 % 1015,7 hPa 0,0 mm 1,3 km/h (1 Bft) N-NO 24 0 min 0 UV-I 0 W/m 6,4 km/h (2 Bft)
10.01.2010 17:20 -1,3 C 82 % 1015,7 hPa 0,0 mm 0,8 km/h (0 Bft) N-NO 25 0 min 0 UV-I 0 W/m 3,2 km/h (1 Bft)
10.01.2010 17:30 -1,3 C 82 % 1015,7 hPa 0,0 mm 0,7 km/h (0 Bft) O-NO 65 0 min 0 UV-I 0 W/m 4,8 km/h (1 Bft)
10.01.2010 17:40 -1,4 C 82 % 1015,7 hPa 0,0 mm 0,6 km/h (0 Bft) O-NO 57 0 min 0 UV-I 0 W/m 4,8 km/h (1 Bft)
10.01.2010 17:50 -1,5 C 82 % 1015,8 hPa 0,0 mm 0,2 km/h (0 Bft) O-NO 57 0 min 0 UV-I 0 W/m 3,2 km/h (1 Bft)
10.01.2010 18:00 -1,5 C 82 % 1015,8 hPa 0,0 mm 0,7 km/h (0 Bft) O-NO 57 0 min 0 UV-I 0 W/m 4,8 km/h (1 Bft)
10.01.2010 18:10 -1,6 C 83 % 1015,9 hPa 0,0 mm 0,8 km/h (0 Bft) O-NO 60 0 min 0 UV-I 0 W/m 4,8 km/h (1 Bft)
10.01.2010 18:20 -1,6 C 83 % 1016,0 hPa 0,0 mm 0,5 km/h (0 Bft) O-NO 61 0 min 0 UV-I 0 W/m 3,2 km/h (1 Bft)
10.01.2010 18:30 -1,7 C 83 % 1016,0 hPa 0,0 mm 0,7 km/h (0 Bft) O-NO 61 0 min 0 UV-I 0 W/m 3,2 km/h (1 Bft)
10.01.2010 18:40 -1,7 C 83 % 1016,0 hPa 0,0 mm 0,3 km/h (0 Bft) O-NO 61 0 min 0 UV-I 0 W/m 3,2 km/h (1 Bft)
10.01.2010 18:50 -1,8 C 83 % 1016,1 hPa 0,0 mm 0,1 km/h (0 Bft) O-NO 60 0 min 0 UV-I 0 W/m 3,2 km/h (1 Bft)
10.01.2010 19:00 -1,8 C 83 % 1016,2 hPa 0,0 mm 0,0 km/h (0 Bft) O-NO 61 0 min 0 UV-I 0 W/m 0,0 km/h (0 Bft)
10.01.2010 19:10 -1,8 C 83 % 1016,2 hPa 0,0 mm 0,0 km/h (0 Bft) O-NO 60 0 min 0 UV-I 0 W/m 0,0 km/h (0 Bft)
10.01.2010 19:20 -1,9 C 84 % 1016,3 hPa 0,0 mm 0,0 km/h (0 Bft) O-NO 61 0 min 0 UV-I 0 W/m 0,0 km/h (0 Bft)
10.01.2010 19:30 -1,9 C 84 % 1016,4 hPa 0,0 mm 0,3 km/h (0 Bft) O-NO 60 0 min 0 UV-I 0 W/m 3,2 km/h (1 Bft)
10.01.2010 19:40 -1,9 C 84 % 1016,4 hPa 0,0 mm 0,7 km/h (0 Bft) O-NO 61 0 min 0 UV-I 0 W/m 4,8 km/h (1 Bft)
10.01.2010 19:50 -2,0 C 84 % 1016,4 hPa 0,0 mm 0,9 km/h (0 Bft) O-NO 60 0 min 0 UV-I 0 W/m 4,8 km/h (1 Bft)
10.01.2010 20:00 -2,0 C 85 % 1016,4 hPa 0,0 mm 0,9 km/h (0 Bft) O-NO 60 0 min 0 UV-I 0 W/m 3,2 km/h (1 Bft)
10.01.2010 20:10 -2,1 C 85 % 1016,5 hPa 0,0 mm 1,3 km/h (1 Bft) N-NO 29 0 min 0 UV-I 0 W/m 4,8 km/h (1 Bft)
10.01.2010 20:20 -2,1 C 85 % 1016,5 hPa 0,0 mm 1,0 km/h (0 Bft) N-NO 28 0 min 0 UV-I 0 W/m 4,8 km/h (1 Bft)
10.01.2010 20:30 -2,2 C 85 % 1016,5 hPa 0,0 mm 0,2 km/h (0 Bft) N-NO 28 0 min 0 UV-I 0 W/m 3,2 km/h (1 Bft)
10.01.2010 20:40 -2,2 C 85 % 1016,6 hPa 0,0 mm 0,5 km/h (0 Bft) N-NO 27 0 min 0 UV-I 0 W/m 3,2 km/h (1 Bft)
10.01.2010 20:50 -2,3 C 85 % 1016,6 hPa 0,0 mm 0,0 km/h (0 Bft) N-NO 28 0 min 0 UV-I 0 W/m 1,6 km/h (1 Bft)
10.01.2010 21:00 -2,3 C 86 % 1016,7 hPa 0,0 mm 0,2 km/h (0 Bft) N-NO 28 0 min 0 UV-I 0 W/m 3,2 km/h (1 Bft)
10.01.2010 21:10 -2,3 C 86 % 1016,7 hPa 0,0 mm 0,6 km/h (0 Bft) N-NO 27 0 min 0 UV-I 0 W/m 6,4 km/h (2 Bft)
10.01.2010 21:20 -2,4 C 86 % 1016,7 hPa 0,0 mm 1,3 km/h (1 Bft) N-NO 26 0 min 0 UV-I 0 W/m 4,8 km/h (1 Bft)
10.01.2010 21:30 -2,4 C 86 % 1016,7 hPa 0,0 mm 1,2 km/h (1 Bft) N-NO 27 0 min 0 UV-I 0 W/m 6,4 km/h (2 Bft)
10.01.2010 21:40 -2,4 C 86 % 1016,8 hPa 0,0 mm 1,7 km/h (1 Bft) N-NO 26 0 min 0 UV-I 0 W/m 4,8 km/h (1 Bft)
10.01.2010 21:50 -2,4 C 87 % 1016,8 hPa 0,0 mm 1,4 km/h (1 Bft) N-NO 28 0 min 0 UV-I 0 W/m 4,8 km/h (1 Bft)
10.01.2010 22:00 -2,4 C 87 % 1016,8 hPa 0,0 mm 1,5 km/h (1 Bft) N 360 0 min 0 UV-I 0 W/m 6,4 km/h (2 Bft)
10.01.2010 22:10 -2,4 C 87 % 1016,8 hPa 0,0 mm 1,3 km/h (1 Bft) NO 49 0 min 0 UV-I 0 W/m 6,4 km/h (2 Bft)
10.01.2010 22:20 -2,4 C 87 % 1016,8 hPa 0,0 mm 1,9 km/h (1 Bft) N 11 0 min 0 UV-I 0 W/m 8,0 km/h (2 Bft)
10.01.2010 22:30 -2,4 C 87 % 1016,7 hPa 0,0 mm 1,2 km/h (1 Bft) N-NO 20 0 min 0 UV-I 0 W/m 4,8 km/h (1 Bft)
10.01.2010 22:40 -2,4 C 88 % 1016,7 hPa 0,0 mm 1,2 km/h (1 Bft) N-NO 19 0 min 0 UV-I 0 W/m 4,8 km/h (1 Bft)
10.01.2010 22:50 -2,4 C 88 % 1016,7 hPa 0,0 mm 0,6 km/h (0 Bft) N-NO 19 0 min 0 UV-I 0 W/m 3,2 km/h (1 Bft)
10.01.2010 23:00 -2,4 C 88 % 1016,8 hPa 0,0 mm 0,6 km/h (0 Bft) N-NO 19 0 min 0 UV-I 0 W/m 4,8 km/h (1 Bft)
10.01.2010 23:10 -2,4 C 88 % 1016,8 hPa 0,0 mm 0,2 km/h (0 Bft) N-NO 18 0 min 0 UV-I 0 W/m 3,2 km/h (1 Bft)
10.01.2010 23:20 -2,5 C 88 % 1016,8 hPa 0,0 mm 0,0 km/h (0 Bft) N-NO 19 0 min 0 UV-I 0 W/m 0,0 km/h (0 Bft)
10.01.2010 23:30 -2,5 C 88 % 1016,8 hPa 0,0 mm 0,0 km/h (0 Bft) N-NO 19 0 min 0 UV-I 0 W/m 1,6 km/h (1 Bft)
10.01.2010 23:40 -2,5 C 88 % 1016,8 hPa 0,0 mm 0,3 km/h (0 Bft) N-NO 19 0 min 0 UV-I 0 W/m 3,2 km/h (1 Bft)
10.01.2010 23:50 -2,5 C 88 % 1016,8 hPa 0,0 mm 0,0 km/h (0 Bft) N-NO 22 0 min 0 UV-I 0 W/m 3,2 km/h (1 Bft)
_ Min-Zeit 23:10 14:30 00:40 - 05:50 - - - - - 19:00
Minimum _ -2,5 C 80 % 996,9 hPa - 0,0 km/h (0 Bft) - - - - - 0,0 km/h (0 Bft)
_ Max-Zeit 13:30 10:20 21:40 00:20 00:10 - - 13:20 13:20 13:20 00:10
Maximum _ -0,2 C 89 % 1016,8 hPa 0,3 mm 4,9 km/h
O-NO (1 Bft)
- - 10 min 1 UV-I 171 W/m 16,1 km/h
NO (3 Bft)
Durchschnitt _ -1,7 C 85 % 1013,6 hPa #1,5 mm 1,6 km/h (1 Bft) O-NO - #20 min. 0 UV-I 59 W/m 6,4 km/h (2 Bft)